sensor_id;sensor_type;location;lat;lon;timestamp;P1;durP1;ratioP1;P2;durP2;ratioP2
27223;SDS011;14965;50.660;13.226;2022-09-09T00:00:59;6.95;;;2.05;;
27223;SDS011;14965;50.660;13.226;2022-09-09T00:03:34;7.43;;;1.80;;
27223;SDS011;14965;50.660;13.226;2022-09-09T00:06:11;5.50;;;1.67;;
27223;SDS011;14965;50.660;13.226;2022-09-09T00:08:50;5.22;;;1.60;;
27223;SDS011;14965;50.660;13.226;2022-09-09T00:11:28;2.92;;;1.27;;
27223;SDS011;14965;50.660;13.226;2022-09-09T00:14:07;3.65;;;1.50;;
27223;SDS011;14965;50.660;13.226;2022-09-09T00:16:44;3.90;;;1.50;;
27223;SDS011;14965;50.660;13.226;2022-09-09T00:19:20;3.70;;;1.60;;
27223;SDS011;14965;50.660;13.226;2022-09-09T00:22:07;7.10;;;1.67;;
27223;SDS011;14965;50.660;13.226;2022-09-09T00:24:44;4.30;;;1.70;;
27223;SDS011;14965;50.660;13.226;2022-09-09T00:27:16;8.02;;;1.58;;
27223;SDS011;14965;50.660;13.226;2022-09-09T00:29:53;3.28;;;1.40;;
27223;SDS011;14965;50.660;13.226;2022-09-09T00:32:24;8.85;;;1.80;;
27223;SDS011;14965;50.660;13.226;2022-09-09T00:34:56;4.43;;;1.58;;
27223;SDS011;14965;50.660;13.226;2022-09-09T00:37:28;4.00;;;1.35;;
27223;SDS011;14965;50.660;13.226;2022-09-09T00:39:59;7.80;;;2.03;;
27223;SDS011;14965;50.660;13.226;2022-09-09T00:42:42;2.83;;;1.40;;
27223;SDS011;14965;50.660;13.226;2022-09-09T00:45:15;3.40;;;1.40;;
27223;SDS011;14965;50.660;13.226;2022-09-09T00:48:14;3.50;;;1.70;;
27223;SDS011;14965;50.660;13.226;2022-09-09T00:50:43;4.38;;;1.70;;
27223;SDS011;14965;50.660;13.226;2022-09-09T00:53:27;8.02;;;1.73;;
27223;SDS011;14965;50.660;13.226;2022-09-09T00:56:09;6.22;;;1.50;;
27223;SDS011;14965;50.660;13.226;2022-09-09T00:58:39;3.17;;;1.67;;
27223;SDS011;14965;50.660;13.226;2022-09-09T01:01:08;6.05;;;1.85;;
27223;SDS011;14965;50.660;13.226;2022-09-09T01:03:38;7.70;;;1.60;;
27223;SDS011;14965;50.660;13.226;2022-09-09T01:06:20;5.18;;;1.65;;
27223;SDS011;14965;50.660;13.226;2022-09-09T01:09:07;2.95;;;1.50;;
27223;SDS011;14965;50.660;13.226;2022-09-09T01:11:50;4.28;;;1.60;;
27223;SDS011;14965;50.660;13.226;2022-09-09T01:14:29;4.20;;;1.63;;
27223;SDS011;14965;50.660;13.226;2022-09-09T01:17:07;4.88;;;1.73;;
27223;SDS011;14965;50.660;13.226;2022-09-09T01:19:45;6.15;;;2.60;;
27223;SDS011;14965;50.660;13.226;2022-09-09T01:22:26;6.78;;;2.60;;
27223;SDS011;14965;50.660;13.226;2022-09-09T01:27:54;6.20;;;3.05;;
27223;SDS011;14965;50.660;13.226;2022-09-09T01:30:25;12.57;;;3.60;;
27223;SDS011;14965;50.660;13.226;2022-09-09T01:32:53;6.85;;;2.70;;
27223;SDS011;14965;50.660;13.226;2022-09-09T01:35:26;5.30;;;2.30;;
27223;SDS011;14965;50.660;13.226;2022-09-09T01:38:02;5.82;;;2.17;;
27223;SDS011;14965;50.660;13.226;2022-09-09T01:40:29;5.28;;;1.92;;
27223;SDS011;14965;50.660;13.226;2022-09-09T01:42:56;4.78;;;1.63;;
27223;SDS011;14965;50.660;13.226;2022-09-09T01:45:23;5.07;;;1.60;;
27223;SDS011;14965;50.660;13.226;2022-09-09T01:47:50;8.38;;;1.90;;
27223;SDS011;14965;50.660;13.226;2022-09-09T01:50:17;3.55;;;1.73;;
27223;SDS011;14965;50.660;13.226;2022-09-09T01:52:45;6.78;;;1.73;;
27223;SDS011;14965;50.660;13.226;2022-09-09T01:55:15;4.45;;;1.73;;
27223;SDS011;14965;50.660;13.226;2022-09-09T01:57:45;3.72;;;1.83;;
27223;SDS011;14965;50.660;13.226;2022-09-09T02:00:23;7.45;;;1.60;;
27223;SDS011;14965;50.660;13.226;2022-09-09T02:02:53;6.05;;;2.15;;
27223;SDS011;14965;50.660;13.226;2022-09-09T02:05:31;7.18;;;1.70;;
27223;SDS011;14965;50.660;13.226;2022-09-09T02:08:05;5.43;;;1.90;;
27223;SDS011;14965;50.660;13.226;2022-09-09T02:10:35;2.60;;;1.48;;
27223;SDS011;14965;50.660;13.226;2022-09-09T02:13:11;5.32;;;1.73;;
27223;SDS011;14965;50.660;13.226;2022-09-09T02:15:42;3.83;;;1.50;;
27223;SDS011;14965;50.660;13.226;2022-09-09T02:18:18;3.25;;;1.40;;
27223;SDS011;14965;50.660;13.226;2022-09-09T02:20:52;7.97;;;1.55;;
27223;SDS011;14965;50.660;13.226;2022-09-09T02:23:19;5.07;;;1.65;;
27223;SDS011;14965;50.660;13.226;2022-09-09T02:25:46;3.55;;;1.58;;
27223;SDS011;14965;50.660;13.226;2022-09-09T02:28:14;3.15;;;1.40;;
27223;SDS011;14965;50.660;13.226;2022-09-09T02:30:46;4.72;;;1.50;;
27223;SDS011;14965;50.660;13.226;2022-09-09T02:33:15;5.60;;;1.70;;
27223;SDS011;14965;50.660;13.226;2022-09-09T02:35:41;4.80;;;1.58;;
27223;SDS011;14965;50.660;13.226;2022-09-09T02:38:10;4.85;;;1.50;;
27223;SDS011;14965;50.660;13.226;2022-09-09T02:40:40;7.82;;;1.63;;
27223;SDS011;14965;50.660;13.226;2022-09-09T02:43:06;3.55;;;1.45;;
27223;SDS011;14965;50.660;13.226;2022-09-09T02:45:35;5.20;;;1.48;;
27223;SDS011;14965;50.660;13.226;2022-09-09T02:48:11;4.30;;;1.50;;
27223;SDS011;14965;50.660;13.226;2022-09-09T02:50:48;4.40;;;1.50;;
27223;SDS011;14965;50.660;13.226;2022-09-09T02:53:23;3.03;;;1.50;;
27223;SDS011;14965;50.660;13.226;2022-09-09T02:56:01;5.80;;;1.70;;
27223;SDS011;14965;50.660;13.226;2022-09-09T02:58:33;5.45;;;1.52;;
27223;SDS011;14965;50.660;13.226;2022-09-09T03:01:01;7.40;;;1.65;;
27223;SDS011;14965;50.660;13.226;2022-09-09T03:03:29;2.72;;;1.48;;
27223;SDS011;14965;50.660;13.226;2022-09-09T03:05:55;5.10;;;1.25;;
27223;SDS011;14965;50.660;13.226;2022-09-09T03:08:21;4.35;;;1.40;;
27223;SDS011;14965;50.660;13.226;2022-09-09T03:10:47;4.78;;;1.30;;
27223;SDS011;14965;50.660;13.226;2022-09-09T03:13:13;7.20;;;1.55;;
27223;SDS011;14965;50.660;13.226;2022-09-09T03:15:39;7.05;;;1.30;;
27223;SDS011;14965;50.660;13.226;2022-09-09T03:18:05;5.70;;;1.55;;
27223;SDS011;14965;50.660;13.226;2022-09-09T03:20:33;4.05;;;1.27;;
27223;SDS011;14965;50.660;13.226;2022-09-09T03:22:59;3.58;;;1.42;;
27223;SDS011;14965;50.660;13.226;2022-09-09T03:25:26;2.75;;;1.35;;
27223;SDS011;14965;50.660;13.226;2022-09-09T03:27:52;3.92;;;1.33;;
27223;SDS011;14965;50.660;13.226;2022-09-09T03:30:19;3.40;;;1.30;;
27223;SDS011;14965;50.660;13.226;2022-09-09T03:32:46;6.60;;;1.42;;
27223;SDS011;14965;50.660;13.226;2022-09-09T03:35:12;4.07;;;1.95;;
27223;SDS011;14965;50.660;13.226;2022-09-09T03:37:39;4.43;;;1.70;;
27223;SDS011;14965;50.660;13.226;2022-09-09T03:40:05;7.00;;;1.58;;
27223;SDS011;14965;50.660;13.226;2022-09-09T03:42:33;4.97;;;1.60;;
27223;SDS011;14965;50.660;13.226;2022-09-09T03:44:58;5.57;;;1.50;;
27223;SDS011;14965;50.660;13.226;2022-09-09T03:47:24;5.78;;;1.50;;
27223;SDS011;14965;50.660;13.226;2022-09-09T03:49:50;5.13;;;1.38;;
27223;SDS011;14965;50.660;13.226;2022-09-09T03:52:16;3.53;;;1.20;;
27223;SDS011;14965;50.660;13.226;2022-09-09T03:54:43;7.20;;;1.77;;
27223;SDS011;14965;50.660;13.226;2022-09-09T03:57:09;6.35;;;1.75;;
27223;SDS011;14965;50.660;13.226;2022-09-09T03:59:35;3.13;;;1.48;;
27223;SDS011;14965;50.660;13.226;2022-09-09T04:02:01;4.43;;;1.70;;
27223;SDS011;14965;50.660;13.226;2022-09-09T04:04:27;5.45;;;1.50;;
27223;SDS011;14965;50.660;13.226;2022-09-09T04:06:53;6.63;;;1.58;;
27223;SDS011;14965;50.660;13.226;2022-09-09T04:09:19;7.88;;;1.60;;
27223;SDS011;14965;50.660;13.226;2022-09-09T04:11:47;2.97;;;1.10;;
27223;SDS011;14965;50.660;13.226;2022-09-09T04:14:12;3.25;;;1.40;;
27223;SDS011;14965;50.660;13.226;2022-09-09T04:16:38;4.13;;;1.25;;
27223;SDS011;14965;50.660;13.226;2022-09-09T04:19:04;2.60;;;1.42;;
27223;SDS011;14965;50.660;13.226;2022-09-09T04:21:30;3.95;;;1.33;;
27223;SDS011;14965;50.660;13.226;2022-09-09T04:23:56;3.15;;;1.48;;
27223;SDS011;14965;50.660;13.226;2022-09-09T04:26:22;5.07;;;2.03;;
27223;SDS011;14965;50.660;13.226;2022-09-09T04:28:49;11.65;;;4.65;;
27223;SDS011;14965;50.660;13.226;2022-09-09T04:31:16;9.32;;;4.43;;
27223;SDS011;14965;50.660;13.226;2022-09-09T04:36:10;16.65;;;8.90;;
27223;SDS011;14965;50.660;13.226;2022-09-09T04:38:35;20.23;;;9.85;;
27223;SDS011;14965;50.660;13.226;2022-09-09T04:41:01;12.45;;;7.40;;
27223;SDS011;14965;50.660;13.226;2022-09-09T04:43:27;11.98;;;6.70;;
27223;SDS011;14965;50.660;13.226;2022-09-09T04:45:54;10.27;;;4.88;;
27223;SDS011;14965;50.660;13.226;2022-09-09T04:48:20;6.60;;;3.38;;
27223;SDS011;14965;50.660;13.226;2022-09-09T04:50:53;5.40;;;2.83;;
27223;SDS011;14965;50.660;13.226;2022-09-09T04:53:21;6.63;;;2.25;;
27223;SDS011;14965;50.660;13.226;2022-09-09T04:55:47;6.75;;;2.10;;
27223;SDS011;14965;50.660;13.226;2022-09-09T04:58:13;3.97;;;1.85;;
27223;SDS011;14965;50.660;13.226;2022-09-09T05:00:39;6.80;;;1.80;;
27223;SDS011;14965;50.660;13.226;2022-09-09T05:03:07;3.80;;;1.60;;
27223;SDS011;14965;50.660;13.226;2022-09-09T05:05:33;6.07;;;1.50;;
27223;SDS011;14965;50.660;13.226;2022-09-09T05:08:03;5.05;;;1.67;;
27223;SDS011;14965;50.660;13.226;2022-09-09T05:10:30;4.25;;;1.65;;
27223;SDS011;14965;50.660;13.226;2022-09-09T05:12:56;7.10;;;1.60;;
27223;SDS011;14965;50.660;13.226;2022-09-09T05:15:22;9.45;;;1.80;;
27223;SDS011;14965;50.660;13.226;2022-09-09T05:17:48;5.35;;;2.00;;
27223;SDS011;14965;50.660;13.226;2022-09-09T05:20:15;9.32;;;2.30;;
27223;SDS011;14965;50.660;13.226;2022-09-09T05:22:41;7.05;;;2.15;;
27223;SDS011;14965;50.660;13.226;2022-09-09T05:25:07;5.85;;;2.30;;
27223;SDS011;14965;50.660;13.226;2022-09-09T05:27:33;6.85;;;1.90;;
27223;SDS011;14965;50.660;13.226;2022-09-09T05:29:59;4.97;;;1.95;;
27223;SDS011;14965;50.660;13.226;2022-09-09T05:32:25;4.40;;;1.90;;
27223;SDS011;14965;50.660;13.226;2022-09-09T05:34:51;7.32;;;1.90;;
27223;SDS011;14965;50.660;13.226;2022-09-09T05:37:18;11.60;;;2.17;;
27223;SDS011;14965;50.660;13.226;2022-09-09T05:39:44;6.93;;;1.90;;
27223;SDS011;14965;50.660;13.226;2022-09-09T05:42:10;8.75;;;1.80;;
27223;SDS011;14965;50.660;13.226;2022-09-09T05:44:36;8.70;;;1.90;;
27223;SDS011;14965;50.660;13.226;2022-09-09T05:47:02;7.20;;;2.00;;
27223;SDS011;14965;50.660;13.226;2022-09-09T05:49:28;7.95;;;1.70;;
27223;SDS011;14965;50.660;13.226;2022-09-09T05:51:54;5.18;;;1.50;;
27223;SDS011;14965;50.660;13.226;2022-09-09T05:54:21;7.50;;;1.80;;
27223;SDS011;14965;50.660;13.226;2022-09-09T05:56:50;6.32;;;2.03;;
27223;SDS011;14965;50.660;13.226;2022-09-09T06:01:42;6.43;;;1.30;;
27223;SDS011;14965;50.660;13.226;2022-09-09T06:04:08;5.85;;;1.30;;
27223;SDS011;14965;50.660;13.226;2022-09-09T06:06:34;4.32;;;1.05;;
27223;SDS011;14965;50.660;13.226;2022-09-09T06:09:04;4.15;;;1.13;;
27223;SDS011;14965;50.660;13.226;2022-09-09T06:11:33;4.80;;;1.17;;
27223;SDS011;14965;50.660;13.226;2022-09-09T06:14:00;5.88;;;1.30;;
27223;SDS011;14965;50.660;13.226;2022-09-09T06:16:26;6.22;;;1.33;;
27223;SDS011;14965;50.660;13.226;2022-09-09T06:18:54;8.48;;;1.52;;
27223;SDS011;14965;50.660;13.226;2022-09-09T06:21:22;6.10;;;1.88;;
27223;SDS011;14965;50.660;13.226;2022-09-09T06:23:50;5.75;;;1.73;;
27223;SDS011;14965;50.660;13.226;2022-09-09T06:26:18;6.82;;;1.65;;
27223;SDS011;14965;50.660;13.226;2022-09-09T06:28:48;5.47;;;1.38;;
27223;SDS011;14965;50.660;13.226;2022-09-09T06:31:16;3.33;;;1.05;;
27223;SDS011;14965;50.660;13.226;2022-09-09T06:33:44;5.35;;;1.40;;
27223;SDS011;14965;50.660;13.226;2022-09-09T06:36:10;4.57;;;1.00;;
27223;SDS011;14965;50.660;13.226;2022-09-09T06:38:38;5.85;;;1.23;;
27223;SDS011;14965;50.660;13.226;2022-09-09T06:41:04;4.70;;;1.23;;
27223;SDS011;14965;50.660;13.226;2022-09-09T06:43:30;2.08;;;1.10;;
27223;SDS011;14965;50.660;13.226;2022-09-09T06:45:58;4.78;;;1.23;;
27223;SDS011;14965;50.660;13.226;2022-09-09T06:48:26;4.28;;;1.30;;
27223;SDS011;14965;50.660;13.226;2022-09-09T06:50:59;6.80;;;1.20;;
27223;SDS011;14965;50.660;13.226;2022-09-09T06:53:26;5.55;;;1.20;;
27223;SDS011;14965;50.660;13.226;2022-09-09T06:55:52;6.00;;;1.15;;
27223;SDS011;14965;50.660;13.226;2022-09-09T06:58:18;1.73;;;1.20;;
27223;SDS011;14965;50.660;13.226;2022-09-09T07:00:44;7.03;;;1.40;;
27223;SDS011;14965;50.660;13.226;2022-09-09T07:03:11;4.85;;;1.30;;
27223;SDS011;14965;50.660;13.226;2022-09-09T07:05:37;6.90;;;1.23;;
27223;SDS011;14965;50.660;13.226;2022-09-09T07:08:03;5.72;;;1.30;;
27223;SDS011;14965;50.660;13.226;2022-09-09T07:10:29;5.63;;;1.13;;
27223;SDS011;14965;50.660;13.226;2022-09-09T07:12:54;5.13;;;1.05;;
27223;SDS011;14965;50.660;13.226;2022-09-09T07:15:20;5.80;;;1.20;;
27223;SDS011;14965;50.660;13.226;2022-09-09T07:17:46;5.38;;;1.38;;
27223;SDS011;14965;50.660;13.226;2022-09-09T07:20:14;8.02;;;1.30;;
27223;SDS011;14965;50.660;13.226;2022-09-09T07:22:40;2.83;;;0.95;;
27223;SDS011;14965;50.660;13.226;2022-09-09T07:25:07;2.78;;;1.20;;
27223;SDS011;14965;50.660;13.226;2022-09-09T07:27:34;3.00;;;1.08;;
27223;SDS011;14965;50.660;13.226;2022-09-09T07:29:59;4.68;;;1.30;;
27223;SDS011;14965;50.660;13.226;2022-09-09T07:32:25;4.57;;;1.63;;
27223;SDS011;14965;50.660;13.226;2022-09-09T07:34:51;3.67;;;1.40;;
27223;SDS011;14965;50.660;13.226;2022-09-09T07:37:19;3.85;;;1.50;;
27223;SDS011;14965;50.660;13.226;2022-09-09T07:39:45;6.45;;;1.45;;
27223;SDS011;14965;50.660;13.226;2022-09-09T07:42:10;5.28;;;1.35;;
27223;SDS011;14965;50.660;13.226;2022-09-09T07:44:36;3.03;;;1.20;;
27223;SDS011;14965;50.660;13.226;2022-09-09T07:47:02;5.40;;;1.20;;
27223;SDS011;14965;50.660;13.226;2022-09-09T07:49:28;8.45;;;1.75;;
27223;SDS011;14965;50.660;13.226;2022-09-09T07:51:54;6.97;;;1.60;;
27223;SDS011;14965;50.660;13.226;2022-09-09T07:54:21;3.92;;;1.30;;
27223;SDS011;14965;50.660;13.226;2022-09-09T07:56:47;3.67;;;1.20;;
27223;SDS011;14965;50.660;13.226;2022-09-09T07:59:13;6.65;;;1.38;;
27223;SDS011;14965;50.660;13.226;2022-09-09T08:01:40;7.35;;;1.52;;
27223;SDS011;14965;50.660;13.226;2022-09-09T08:06:38;7.15;;;1.85;;
27223;SDS011;14965;50.660;13.226;2022-09-09T08:09:05;5.18;;;1.60;;
27223;SDS011;14965;50.660;13.226;2022-09-09T08:11:35;8.00;;;1.35;;
27223;SDS011;14965;50.660;13.226;2022-09-09T08:14:01;6.43;;;1.40;;
27223;SDS011;14965;50.660;13.226;2022-09-09T08:16:28;7.50;;;1.50;;
27223;SDS011;14965;50.660;13.226;2022-09-09T08:18:58;5.68;;;1.50;;
27223;SDS011;14965;50.660;13.226;2022-09-09T08:21:24;6.13;;;1.50;;
27223;SDS011;14965;50.660;13.226;2022-09-09T08:23:56;8.32;;;1.50;;
27223;SDS011;14965;50.660;13.226;2022-09-09T08:26:24;6.13;;;1.80;;
27223;SDS011;14965;50.660;13.226;2022-09-09T08:28:55;5.80;;;1.65;;
27223;SDS011;14965;50.660;13.226;2022-09-09T08:31:25;7.45;;;1.50;;
27223;SDS011;14965;50.660;13.226;2022-09-09T08:33:53;7.82;;;1.55;;
27223;SDS011;14965;50.660;13.226;2022-09-09T08:36:21;7.32;;;1.55;;
27223;SDS011;14965;50.660;13.226;2022-09-09T08:41:25;5.40;;;1.70;;
27223;SDS011;14965;50.660;13.226;2022-09-09T08:44:45;4.15;;;1.23;;
27223;SDS011;14965;50.660;13.226;2022-09-09T08:47:46;3.05;;;1.10;;
27223;SDS011;14965;50.660;13.226;2022-09-09T08:50:26;3.47;;;1.30;;
27223;SDS011;14965;50.660;13.226;2022-09-09T08:55:28;5.43;;;1.30;;
27223;SDS011;14965;50.660;13.226;2022-09-09T08:58:05;5.35;;;1.40;;
27223;SDS011;14965;50.660;13.226;2022-09-09T09:00:40;8.52;;;1.73;;
27223;SDS011;14965;50.660;13.226;2022-09-09T09:03:35;5.53;;;1.25;;
27223;SDS011;14965;50.660;13.226;2022-09-09T09:06:15;7.85;;;1.50;;
27223;SDS011;14965;50.660;13.226;2022-09-09T09:08:59;9.13;;;1.80;;
27223;SDS011;14965;50.660;13.226;2022-09-09T09:11:35;5.38;;;1.30;;
27223;SDS011;14965;50.660;13.226;2022-09-09T09:14:07;6.78;;;1.52;;
27223;SDS011;14965;50.660;13.226;2022-09-09T09:16:40;4.80;;;1.30;;
27223;SDS011;14965;50.660;13.226;2022-09-09T09:19:16;5.03;;;1.33;;
27223;SDS011;14965;50.660;13.226;2022-09-09T09:21:44;3.80;;;1.25;;
27223;SDS011;14965;50.660;13.226;2022-09-09T09:24:16;6.30;;;1.30;;
27223;SDS011;14965;50.660;13.226;2022-09-09T09:26:45;6.47;;;1.75;;
27223;SDS011;14965;50.660;13.226;2022-09-09T09:29:12;5.55;;;1.75;;
27223;SDS011;14965;50.660;13.226;2022-09-09T09:31:43;6.97;;;1.73;;
27223;SDS011;14965;50.660;13.226;2022-09-09T09:34:12;9.45;;;1.80;;
27223;SDS011;14965;50.660;13.226;2022-09-09T09:36:39;7.35;;;1.65;;
27223;SDS011;14965;50.660;13.226;2022-09-09T09:39:10;7.85;;;1.40;;
27223;SDS011;14965;50.660;13.226;2022-09-09T09:41:36;4.70;;;1.20;;
27223;SDS011;14965;50.660;13.226;2022-09-09T09:44:19;5.72;;;1.25;;
27223;SDS011;14965;50.660;13.226;2022-09-09T09:46:50;4.20;;;1.40;;
27223;SDS011;14965;50.660;13.226;2022-09-09T09:49:17;4.25;;;1.30;;
27223;SDS011;14965;50.660;13.226;2022-09-09T09:51:44;3.42;;;0.90;;
27223;SDS011;14965;50.660;13.226;2022-09-09T09:54:14;5.65;;;1.25;;
27223;SDS011;14965;50.660;13.226;2022-09-09T09:56:53;6.28;;;1.08;;
27223;SDS011;14965;50.660;13.226;2022-09-09T09:59:20;2.90;;;1.00;;
27223;SDS011;14965;50.660;13.226;2022-09-09T10:02:10;6.27;;;1.20;;
27223;SDS011;14965;50.660;13.226;2022-09-09T10:04:42;4.47;;;1.33;;
27223;SDS011;14965;50.660;13.226;2022-09-09T10:07:11;3.97;;;1.13;;
27223;SDS011;14965;50.660;13.226;2022-09-09T10:09:38;4.07;;;1.20;;
27223;SDS011;14965;50.660;13.226;2022-09-09T10:12:06;3.95;;;1.23;;
27223;SDS011;14965;50.660;13.226;2022-09-09T10:14:46;7.30;;;1.40;;
27223;SDS011;14965;50.660;13.226;2022-09-09T10:17:25;4.72;;;1.20;;
27223;SDS011;14965;50.660;13.226;2022-09-09T10:20:17;4.32;;;1.33;;
27223;SDS011;14965;50.660;13.226;2022-09-09T10:22:59;4.28;;;1.20;;
27223;SDS011;14965;50.660;13.226;2022-09-09T10:25:47;4.20;;;1.15;;
27223;SDS011;14965;50.660;13.226;2022-09-09T10:28:33;4.55;;;1.20;;
27223;SDS011;14965;50.660;13.226;2022-09-09T10:31:19;4.97;;;1.25;;
27223;SDS011;14965;50.660;13.226;2022-09-09T10:33:59;6.10;;;1.45;;
27223;SDS011;14965;50.660;13.226;2022-09-09T10:36:46;3.25;;;1.40;;
27223;SDS011;14965;50.660;13.226;2022-09-09T10:39:16;4.35;;;1.30;;
27223;SDS011;14965;50.660;13.226;2022-09-09T10:42:00;6.07;;;1.02;;
27223;SDS011;14965;50.660;13.226;2022-09-09T10:44:41;3.90;;;1.10;;
27223;SDS011;14965;50.660;13.226;2022-09-09T10:47:24;4.95;;;1.05;;
27223;SDS011;14965;50.660;13.226;2022-09-09T10:50:21;4.75;;;1.85;;
27223;SDS011;14965;50.660;13.226;2022-09-09T10:53:08;3.40;;;1.02;;
27223;SDS011;14965;50.660;13.226;2022-09-09T10:55:48;4.97;;;1.27;;
27223;SDS011;14965;50.660;13.226;2022-09-09T10:58:20;6.93;;;1.20;;
27223;SDS011;14965;50.660;13.226;2022-09-09T11:00:53;2.50;;;0.65;;
27223;SDS011;14965;50.660;13.226;2022-09-09T11:03:26;4.85;;;1.00;;
27223;SDS011;14965;50.660;13.226;2022-09-09T11:05:56;4.85;;;0.70;;
27223;SDS011;14965;50.660;13.226;2022-09-09T11:08:29;4.07;;;0.93;;
27223;SDS011;14965;50.660;13.226;2022-09-09T11:11:01;4.38;;;0.95;;
27223;SDS011;14965;50.660;13.226;2022-09-09T11:13:35;4.03;;;0.88;;
27223;SDS011;14965;50.660;13.226;2022-09-09T11:16:15;3.10;;;0.68;;
27223;SDS011;14965;50.660;13.226;2022-09-09T11:18:50;2.85;;;0.88;;
27223;SDS011;14965;50.660;13.226;2022-09-09T11:21:28;1.77;;;0.65;;
27223;SDS011;14965;50.660;13.226;2022-09-09T11:24:02;3.58;;;0.82;;
27223;SDS011;14965;50.660;13.226;2022-09-09T11:26:36;3.15;;;0.60;;
27223;SDS011;14965;50.660;13.226;2022-09-09T11:29:16;3.22;;;0.70;;
27223;SDS011;14965;50.660;13.226;2022-09-09T11:32:16;3.38;;;0.70;;
27223;SDS011;14965;50.660;13.226;2022-09-09T11:35:19;3.17;;;0.80;;
27223;SDS011;14965;50.660;13.226;2022-09-09T11:38:07;4.22;;;1.00;;
27223;SDS011;14965;50.660;13.226;2022-09-09T11:40:44;2.15;;;0.63;;
27223;SDS011;14965;50.660;13.226;2022-09-09T11:43:11;4.65;;;0.82;;
27223;SDS011;14965;50.660;13.226;2022-09-09T11:45:43;2.20;;;0.60;;
27223;SDS011;14965;50.660;13.226;2022-09-09T11:48:22;2.67;;;0.88;;
27223;SDS011;14965;50.660;13.226;2022-09-09T11:50:57;2.08;;;0.80;;
27223;SDS011;14965;50.660;13.226;2022-09-09T11:53:27;3.75;;;0.80;;
27223;SDS011;14965;50.660;13.226;2022-09-09T11:56:02;2.67;;;0.75;;
27223;SDS011;14965;50.660;13.226;2022-09-09T11:58:37;3.25;;;0.80;;
27223;SDS011;14965;50.660;13.226;2022-09-09T12:01:13;2.10;;;0.80;;
27223;SDS011;14965;50.660;13.226;2022-09-09T12:04:01;4.00;;;0.93;;
27223;SDS011;14965;50.660;13.226;2022-09-09T12:09:20;1.92;;;0.90;;
27223;SDS011;14965;50.660;13.226;2022-09-09T12:11:53;4.00;;;0.80;;
27223;SDS011;14965;50.660;13.226;2022-09-09T12:14:34;2.78;;;0.90;;
27223;SDS011;14965;50.660;13.226;2022-09-09T12:17:09;5.07;;;1.50;;
27223;SDS011;14965;50.660;13.226;2022-09-09T12:19:44;4.88;;;1.10;;
27223;SDS011;14965;50.660;13.226;2022-09-09T12:22:12;4.82;;;0.93;;
27223;SDS011;14965;50.660;13.226;2022-09-09T12:24:51;2.67;;;0.85;;
27223;SDS011;14965;50.660;13.226;2022-09-09T12:27:34;4.38;;;1.20;;
27223;SDS011;14965;50.660;13.226;2022-09-09T12:30:10;2.97;;;1.10;;
27223;SDS011;14965;50.660;13.226;2022-09-09T12:32:40;4.00;;;1.05;;
27223;SDS011;14965;50.660;13.226;2022-09-09T12:35:09;2.95;;;1.00;;
27223;SDS011;14965;50.660;13.226;2022-09-09T12:37:41;2.70;;;1.00;;
27223;SDS011;14965;50.660;13.226;2022-09-09T12:40:20;5.00;;;1.10;;
27223;SDS011;14965;50.660;13.226;2022-09-09T12:42:48;4.22;;;1.00;;
27223;SDS011;14965;50.660;13.226;2022-09-09T12:45:15;2.80;;;1.13;;
27223;SDS011;14965;50.660;13.226;2022-09-09T12:47:45;2.60;;;1.10;;
27223;SDS011;14965;50.660;13.226;2022-09-09T12:50:20;4.43;;;1.33;;
27223;SDS011;14965;50.660;13.226;2022-09-09T12:52:49;1.88;;;1.08;;
27223;SDS011;14965;50.660;13.226;2022-09-09T12:55:20;5.10;;;1.20;;
27223;SDS011;14965;50.660;13.226;2022-09-09T12:57:52;6.00;;;1.50;;
27223;SDS011;14965;50.660;13.226;2022-09-09T13:00:19;5.38;;;1.45;;
27223;SDS011;14965;50.660;13.226;2022-09-09T13:02:49;2.55;;;1.17;;
27223;SDS011;14965;50.660;13.226;2022-09-09T13:05:19;2.25;;;1.10;;
27223;SDS011;14965;50.660;13.226;2022-09-09T13:07:48;3.65;;;1.30;;
27223;SDS011;14965;50.660;13.226;2022-09-09T13:10:15;4.78;;;1.40;;
27223;SDS011;14965;50.660;13.226;2022-09-09T13:12:51;4.80;;;1.30;;
27223;SDS011;14965;50.660;13.226;2022-09-09T13:15:19;3.85;;;1.52;;
27223;SDS011;14965;50.660;13.226;2022-09-09T13:17:49;7.82;;;1.27;;
27223;SDS011;14965;50.660;13.226;2022-09-09T13:20:22;3.47;;;1.60;;
27223;SDS011;14965;50.660;13.226;2022-09-09T13:22:49;4.97;;;1.55;;
27223;SDS011;14965;50.660;13.226;2022-09-09T13:25:18;2.90;;;1.10;;
27223;SDS011;14965;50.660;13.226;2022-09-09T13:27:53;3.80;;;1.55;;
27223;SDS011;14965;50.660;13.226;2022-09-09T13:30:26;2.30;;;1.35;;
27223;SDS011;14965;50.660;13.226;2022-09-09T13:33:03;2.28;;;1.40;;
27223;SDS011;14965;50.660;13.226;2022-09-09T13:35:45;5.97;;;1.40;;
27223;SDS011;14965;50.660;13.226;2022-09-09T13:38:14;6.05;;;1.60;;
27223;SDS011;14965;50.660;13.226;2022-09-09T13:40:42;3.40;;;1.40;;
27223;SDS011;14965;50.660;13.226;2022-09-09T13:43:20;5.30;;;1.60;;
27223;SDS011;14965;50.660;13.226;2022-09-09T13:45:52;4.60;;;1.70;;
27223;SDS011;14965;50.660;13.226;2022-09-09T13:48:20;5.72;;;1.30;;
27223;SDS011;14965;50.660;13.226;2022-09-09T13:50:53;2.28;;;1.45;;
27223;SDS011;14965;50.660;13.226;2022-09-09T13:53:27;3.90;;;1.85;;
27223;SDS011;14965;50.660;13.226;2022-09-09T13:55:54;2.35;;;1.05;;
27223;SDS011;14965;50.660;13.226;2022-09-09T13:58:21;2.22;;;1.40;;
27223;SDS011;14965;50.660;13.226;2022-09-09T14:00:47;2.85;;;1.20;;
27223;SDS011;14965;50.660;13.226;2022-09-09T14:03:13;3.15;;;1.25;;
27223;SDS011;14965;50.660;13.226;2022-09-09T14:05:38;4.53;;;1.40;;
27223;SDS011;14965;50.660;13.226;2022-09-09T14:08:05;3.10;;;1.40;;
27223;SDS011;14965;50.660;13.226;2022-09-09T14:10:33;6.22;;;1.50;;
27223;SDS011;14965;50.660;13.226;2022-09-09T14:13:00;3.05;;;1.35;;
27223;SDS011;14965;50.660;13.226;2022-09-09T14:15:26;2.88;;;1.40;;
27223;SDS011;14965;50.660;13.226;2022-09-09T14:17:52;3.95;;;1.40;;
27223;SDS011;14965;50.660;13.226;2022-09-09T14:20:18;2.25;;;1.48;;
27223;SDS011;14965;50.660;13.226;2022-09-09T14:22:44;4.68;;;1.70;;
27223;SDS011;14965;50.660;13.226;2022-09-09T14:25:10;3.45;;;1.48;;
27223;SDS011;14965;50.660;13.226;2022-09-09T14:27:36;2.53;;;1.33;;
27223;SDS011;14965;50.660;13.226;2022-09-09T14:30:03;3.45;;;1.40;;
27223;SDS011;14965;50.660;13.226;2022-09-09T14:32:30;3.88;;;1.35;;
27223;SDS011;14965;50.660;13.226;2022-09-09T14:34:56;3.03;;;1.13;;
27223;SDS011;14965;50.660;13.226;2022-09-09T14:37:22;2.78;;;1.10;;
27223;SDS011;14965;50.660;13.226;2022-09-09T14:39:48;3.10;;;1.30;;
27223;SDS011;14965;50.660;13.226;2022-09-09T14:42:14;2.20;;;1.30;;
27223;SDS011;14965;50.660;13.226;2022-09-09T14:44:39;4.55;;;1.30;;
27223;SDS011;14965;50.660;13.226;2022-09-09T14:47:07;3.60;;;1.30;;
27223;SDS011;14965;50.660;13.226;2022-09-09T14:49:33;4.03;;;1.23;;
27223;SDS011;14965;50.660;13.226;2022-09-09T14:52:00;5.30;;;1.42;;
27223;SDS011;14965;50.660;13.226;2022-09-09T14:54:26;6.30;;;1.25;;
27223;SDS011;14965;50.660;13.226;2022-09-09T14:56:52;2.45;;;1.23;;
27223;SDS011;14965;50.660;13.226;2022-09-09T14:59:18;5.00;;;1.10;;
27223;SDS011;14965;50.660;13.226;2022-09-09T15:01:44;1.52;;;1.08;;
27223;SDS011;14965;50.660;13.226;2022-09-09T15:04:11;5.57;;;1.30;;
27223;SDS011;14965;50.660;13.226;2022-09-09T15:09:04;4.55;;;1.05;;
27223;SDS011;14965;50.660;13.226;2022-09-09T15:11:33;3.22;;;1.20;;
27223;SDS011;14965;50.660;13.226;2022-09-09T15:14:01;4.82;;;1.30;;
27223;SDS011;14965;50.660;13.226;2022-09-09T15:16:27;3.67;;;1.17;;